sensor_id;sensor_type;location;lat;lon;timestamp;pressure;altitude;pressure_sealevel;temperature;humidity
7180;BME280;3631;42.152;24.756;2024-01-07T00:00:09;86573.50;;;-144.30;100.00
7180;BME280;3631;42.152;24.756;2024-01-07T00:02:36;86553.59;;;-144.30;100.00
7180;BME280;3631;42.152;24.756;2024-01-07T00:05:04;86557.59;;;-144.30;100.00
7180;BME280;3631;42.152;24.756;2024-01-07T00:07:32;86635.13;;;-144.30;100.00
7180;BME280;3631;42.152;24.756;2024-01-07T00:09:59;86519.81;;;-144.30;100.00
7180;BME280;3631;42.152;24.756;2024-01-07T00:12:26;86573.50;;;-144.30;100.00
7180;BME280;3631;42.152;24.756;2024-01-07T00:14:53;86551.63;;;-144.30;100.00
7180;BME280;3631;42.152;24.756;2024-01-07T00:17:19;86569.50;;;-144.30;100.00
7180;BME280;3631;42.152;24.756;2024-01-07T00:19:46;86533.72;;;-144.30;100.00
7180;BME280;3631;42.152;24.756;2024-01-07T00:22:13;86577.47;;;-144.30;100.00
7180;BME280;3631;42.152;24.756;2024-01-07T00:24:42;86529.75;;;-144.30;100.00
7180;BME280;3631;42.152;24.756;2024-01-07T00:27:09;86525.75;;;-144.30;100.00
7180;BME280;3631;42.152;24.756;2024-01-07T00:29:36;86541.69;;;-144.30;100.00
7180;BME280;3631;42.152;24.756;2024-01-07T00:32:03;86543.66;;;-144.30;100.00
7180;BME280;3631;42.152;24.756;2024-01-07T00:34:30;86400.50;;;-144.30;100.00
7180;BME280;3631;42.152;24.756;2024-01-07T00:36:58;86501.91;;;-144.30;100.00
7180;BME280;3631;42.152;24.756;2024-01-07T00:39:25;86557.59;;;-144.30;100.00
7180;BME280;3631;42.152;24.756;2024-01-07T00:41:54;86509.84;;;-144.30;100.00
7180;BME280;3631;42.152;24.756;2024-01-07T00:44:20;86539.69;;;-144.30;100.00
7180;BME280;3631;42.152;24.756;2024-01-07T00:46:47;86537.69;;;-144.30;100.00
7180;BME280;3631;42.152;24.756;2024-01-07T00:49:14;86565.53;;;-144.30;100.00
7180;BME280;3631;42.152;24.756;2024-01-07T00:51:42;86517.81;;;-144.30;100.00
7180;BME280;3631;42.152;24.756;2024-01-07T00:54:09;86535.72;;;-144.30;100.00
7180;BME280;3631;42.152;24.756;2024-01-07T00:56:36;86543.66;;;-144.30;100.00
7180;BME280;3631;42.152;24.756;2024-01-07T00:59:04;86501.91;;;-144.30;100.00
7180;BME280;3631;42.152;24.756;2024-01-07T01:01:31;86537.69;;;-144.30;100.00
7180;BME280;3631;42.152;24.756;2024-01-07T01:03:58;86509.84;;;-144.30;100.00
7180;BME280;3631;42.152;24.756;2024-01-07T01:06:25;86491.97;;;-144.30;100.00
7180;BME280;3631;42.152;24.756;2024-01-07T01:08:52;86487.97;;;-144.30;100.00
7180;BME280;3631;42.152;24.756;2024-01-07T01:11:19;86513.84;;;-144.30;100.00
7180;BME280;3631;42.152;24.756;2024-01-07T01:13:45;86489.97;;;-144.30;100.00
7180;BME280;3631;42.152;24.756;2024-01-07T01:16:14;86517.81;;;-144.30;100.00
7180;BME280;3631;42.152;24.756;2024-01-07T01:18:41;86515.81;;;-144.30;100.00
7180;BME280;3631;42.152;24.756;2024-01-07T01:21:08;86525.75;;;-144.30;100.00
7180;BME280;3631;42.152;24.756;2024-01-07T01:23:34;86482.03;;;-144.30;100.00
7180;BME280;3631;42.152;24.756;2024-01-07T01:26:01;86529.75;;;-144.30;100.00
7180;BME280;3631;42.152;24.756;2024-01-07T01:28:28;86478.03;;;-144.30;100.00
7180;BME280;3631;42.152;24.756;2024-01-07T01:30:55;86521.78;;;-144.30;100.00
7180;BME280;3631;42.152;24.756;2024-01-07T01:33:23;86543.66;;;-144.30;100.00
7180;BME280;3631;42.152;24.756;2024-01-07T01:35:50;86539.69;;;-144.30;100.00
7180;BME280;3631;42.152;24.756;2024-01-07T01:38:17;86511.84;;;-144.30;100.00
7180;BME280;3631;42.152;24.756;2024-01-07T01:40:51;86533.72;;;-144.30;100.00
7180;BME280;3631;42.152;24.756;2024-01-07T01:43:22;86470.09;;;-144.30;100.00
7180;BME280;3631;42.152;24.756;2024-01-07T01:45:49;86525.75;;;-144.30;100.00
7180;BME280;3631;42.152;24.756;2024-01-07T01:48:16;86523.78;;;-144.30;100.00
7180;BME280;3631;42.152;24.756;2024-01-07T01:50:45;86493.94;;;-144.30;100.00
7180;BME280;3631;42.152;24.756;2024-01-07T01:53:13;86493.94;;;-144.30;100.00
7180;BME280;3631;42.152;24.756;2024-01-07T01:55:40;86515.81;;;-144.30;100.00
7180;BME280;3631;42.152;24.756;2024-01-07T01:58:09;86507.88;;;-144.30;100.00
7180;BME280;3631;42.152;24.756;2024-01-07T02:00:36;86551.63;;;-144.30;100.00
7180;BME280;3631;42.152;24.756;2024-01-07T02:03:03;86486.00;;;-144.30;100.00
7180;BME280;3631;42.152;24.756;2024-01-07T02:05:30;86489.97;;;-144.30;100.00
7180;BME280;3631;42.152;24.756;2024-01-07T02:07:59;86501.91;;;-144.30;100.00
7180;BME280;3631;42.152;24.756;2024-01-07T02:10:26;86472.06;;;-144.30;100.00
7180;BME280;3631;42.152;24.756;2024-01-07T02:12:59;86464.13;;;-144.30;100.00
7180;BME280;3631;42.152;24.756;2024-01-07T02:15:26;86501.91;;;-144.30;100.00
7180;BME280;3631;42.152;24.756;2024-01-07T02:17:53;86486.00;;;-144.30;100.00
7180;BME280;3631;42.152;24.756;2024-01-07T02:20:20;86476.06;;;-144.30;100.00
7180;BME280;3631;42.152;24.756;2024-01-07T02:22:47;86517.81;;;-144.30;100.00
7180;BME280;3631;42.152;24.756;2024-01-07T02:25:15;86555.59;;;-144.30;100.00
7180;BME280;3631;42.152;24.756;2024-01-07T02:27:42;86482.03;;;-144.30;100.00
7180;BME280;3631;42.152;24.756;2024-01-07T02:30:10;86440.25;;;-144.30;100.00
7180;BME280;3631;42.152;24.756;2024-01-07T02:32:37;86501.91;;;-144.30;100.00
7180;BME280;3631;42.152;24.756;2024-01-07T02:35:04;86448.22;;;-144.30;100.00
7180;BME280;3631;42.152;24.756;2024-01-07T02:37:31;86458.16;;;-144.30;100.00
7180;BME280;3631;42.152;24.756;2024-01-07T02:39:58;86501.91;;;-144.30;100.00
7180;BME280;3631;42.152;24.756;2024-01-07T02:42:26;86446.22;;;-144.30;100.00
7180;BME280;3631;42.152;24.756;2024-01-07T02:44:53;86434.28;;;-144.30;100.00
7180;BME280;3631;42.152;24.756;2024-01-07T02:47:20;86462.13;;;-144.30;100.00
7180;BME280;3631;42.152;24.756;2024-01-07T02:49:47;86511.84;;;-144.30;100.00
7180;BME280;3631;42.152;24.756;2024-01-07T02:52:14;86462.13;;;-144.30;100.00
7180;BME280;3631;42.152;24.756;2024-01-07T02:54:41;86452.19;;;-144.30;100.00
7180;BME280;3631;42.152;24.756;2024-01-07T02:57:08;86426.34;;;-144.30;100.00
7180;BME280;3631;42.152;24.756;2024-01-07T02:59:36;86486.00;;;-144.30;100.00
7180;BME280;3631;42.152;24.756;2024-01-07T03:02:03;86428.31;;;-144.30;100.00
7180;BME280;3631;42.152;24.756;2024-01-07T03:04:30;86468.09;;;-144.30;100.00
7180;BME280;3631;42.152;24.756;2024-01-07T03:06:57;86422.38;;;-144.30;100.00
7180;BME280;3631;42.152;24.756;2024-01-07T03:09:24;86452.19;;;-144.30;100.00
7180;BME280;3631;42.152;24.756;2024-01-07T03:11:51;86418.38;;;-144.30;100.00
7180;BME280;3631;42.152;24.756;2024-01-07T03:14:19;86392.53;;;-144.30;100.00
7180;BME280;3631;42.152;24.756;2024-01-07T03:16:48;86456.16;;;-144.30;100.00
7180;BME280;3631;42.152;24.756;2024-01-07T03:19:15;86386.56;;;-144.30;100.00
7180;BME280;3631;42.152;24.756;2024-01-07T03:21:42;86448.22;;;-144.30;100.00
7180;BME280;3631;42.152;24.756;2024-01-07T03:24:10;86380.59;;;-144.30;100.00
7180;BME280;3631;42.152;24.756;2024-01-07T03:26:37;86470.09;;;-144.30;100.00
7180;BME280;3631;42.152;24.756;2024-01-07T03:29:04;86416.41;;;-144.30;100.00
7180;BME280;3631;42.152;24.756;2024-01-07T03:31:30;86434.28;;;-144.30;100.00
7180;BME280;3631;42.152;24.756;2024-01-07T03:33:59;86394.53;;;-144.30;100.00
7180;BME280;3631;42.152;24.756;2024-01-07T03:36:26;86394.53;;;-144.30;100.00
7180;BME280;3631;42.152;24.756;2024-01-07T03:38:53;86430.31;;;-144.30;100.00
7180;BME280;3631;42.152;24.756;2024-01-07T03:41:20;86372.66;;;-144.30;100.00
7180;BME280;3631;42.152;24.756;2024-01-07T03:43:48;86386.56;;;-144.30;100.00
7180;BME280;3631;42.152;24.756;2024-01-07T03:46:15;86414.41;;;-144.30;100.00
7180;BME280;3631;42.152;24.756;2024-01-07T03:48:43;86370.66;;;-144.30;100.00
7180;BME280;3631;42.152;24.756;2024-01-07T03:51:11;86406.44;;;-144.30;100.00
7180;BME280;3631;42.152;24.756;2024-01-07T03:53:38;86404.47;;;-144.30;100.00
7180;BME280;3631;42.152;24.756;2024-01-07T03:56:06;86400.50;;;-144.30;100.00
7180;BME280;3631;42.152;24.756;2024-01-07T03:58:32;86394.53;;;-144.30;100.00
7180;BME280;3631;42.152;24.756;2024-01-07T04:01:00;86412.41;;;-144.30;100.00
7180;BME280;3631;42.152;24.756;2024-01-07T04:03:27;86370.66;;;-144.30;100.00
7180;BME280;3631;42.152;24.756;2024-01-07T04:05:54;86426.34;;;-144.30;100.00
7180;BME280;3631;42.152;24.756;2024-01-07T04:08:22;86382.59;;;-144.30;100.00
7180;BME280;3631;42.152;24.756;2024-01-07T04:10:49;86394.53;;;-144.30;100.00
7180;BME280;3631;42.152;24.756;2024-01-07T04:13:16;86384.59;;;-144.30;100.00
7180;BME280;3631;42.152;24.756;2024-01-07T04:15:43;86442.25;;;-144.30;100.00
7180;BME280;3631;42.152;24.756;2024-01-07T04:18:09;86432.31;;;-144.30;100.00
7180;BME280;3631;42.152;24.756;2024-01-07T04:20:37;86394.53;;;-144.30;100.00
7180;BME280;3631;42.152;24.756;2024-01-07T04:23:04;86193.69;;;-144.30;100.00
7180;BME280;3631;42.152;24.756;2024-01-07T04:25:32;86414.41;;;-144.30;100.00
7180;BME280;3631;42.152;24.756;2024-01-07T04:27:59;86448.22;;;-144.30;100.00
7180;BME280;3631;42.152;24.756;2024-01-07T04:30:26;86426.34;;;-144.30;100.00
7180;BME280;3631;42.152;24.756;2024-01-07T04:32:53;86410.44;;;-144.30;100.00
7180;BME280;3631;42.152;24.756;2024-01-07T04:35:20;86446.22;;;-144.30;100.00
7180;BME280;3631;42.152;24.756;2024-01-07T04:37:47;86452.19;;;-144.30;100.00
7180;BME280;3631;42.152;24.756;2024-01-07T04:40:14;86414.41;;;-144.30;100.00
7180;BME280;3631;42.152;24.756;2024-01-07T04:42:42;86422.38;;;-144.30;100.00
7180;BME280;3631;42.152;24.756;2024-01-07T04:45:09;86388.56;;;-144.30;100.00
7180;BME280;3631;42.152;24.756;2024-01-07T04:47:36;86434.28;;;-144.30;100.00
7180;BME280;3631;42.152;24.756;2024-01-07T04:50:04;86692.81;;;-144.30;100.00
7180;BME280;3631;42.152;24.756;2024-01-07T04:52:31;86418.38;;;-144.30;100.00
7180;BME280;3631;42.152;24.756;2024-01-07T04:54:58;86414.41;;;-144.30;100.00
7180;BME280;3631;42.152;24.756;2024-01-07T04:57:24;86406.44;;;-144.30;100.00
7180;BME280;3631;42.152;24.756;2024-01-07T04:59:53;86462.13;;;-144.30;100.00
7180;BME280;3631;42.152;24.756;2024-01-07T05:02:20;86430.31;;;-144.30;100.00
7180;BME280;3631;42.152;24.756;2024-01-07T05:04:46;86414.41;;;-144.30;100.00
7180;BME280;3631;42.152;24.756;2024-01-07T05:07:13;86446.22;;;-144.30;100.00
7180;BME280;3631;42.152;24.756;2024-01-07T05:09:40;86452.19;;;-144.30;100.00
7180;BME280;3631;42.152;24.756;2024-01-07T05:12:07;86446.22;;;-144.30;100.00
7180;BME280;3631;42.152;24.756;2024-01-07T05:14:34;86400.50;;;-144.30;100.00
7180;BME280;3631;42.152;24.756;2024-01-07T05:17:03;86414.41;;;-144.30;100.00
7180;BME280;3631;42.152;24.756;2024-01-07T05:19:30;86422.38;;;-144.30;100.00
7180;BME280;3631;42.152;24.756;2024-01-07T05:21:58;86390.53;;;-144.30;100.00
7180;BME280;3631;42.152;24.756;2024-01-07T05:24:25;86406.44;;;-144.30;100.00
7180;BME280;3631;42.152;24.756;2024-01-07T05:26:52;86432.31;;;-144.30;100.00
7180;BME280;3631;42.152;24.756;2024-01-07T05:29:19;86424.34;;;-144.30;100.00
7180;BME280;3631;42.152;24.756;2024-01-07T05:31:46;86855.88;;;-144.30;100.00
7180;BME280;3631;42.152;24.756;2024-01-07T05:34:15;86410.44;;;-144.30;100.00
7180;BME280;3631;42.152;24.756;2024-01-07T05:36:41;86394.53;;;-144.30;100.00
7180;BME280;3631;42.152;24.756;2024-01-07T05:39:08;86388.56;;;-144.30;100.00
7180;BME280;3631;42.152;24.756;2024-01-07T05:41:36;86426.34;;;-144.30;100.00
7180;BME280;3631;42.152;24.756;2024-01-07T05:44:05;86410.44;;;-144.30;100.00
7180;BME280;3631;42.152;24.756;2024-01-07T05:46:32;86390.53;;;-144.30;100.00
7180;BME280;3631;42.152;24.756;2024-01-07T05:48:59;86406.44;;;-144.30;100.00
7180;BME280;3631;42.152;24.756;2024-01-07T05:51:28;86412.41;;;-144.30;100.00
7180;BME280;3631;42.152;24.756;2024-01-07T05:53:55;86420.38;;;-144.30;100.00
7180;BME280;3631;42.152;24.756;2024-01-07T05:56:21;86422.38;;;-144.30;100.00
7180;BME280;3631;42.152;24.756;2024-01-07T05:58:48;86406.44;;;-144.30;100.00
7180;BME280;3631;42.152;24.756;2024-01-07T06:01:18;86450.19;;;-144.30;100.00
7180;BME280;3631;42.152;24.756;2024-01-07T06:03:45;86390.53;;;-144.30;100.00
7180;BME280;3631;42.152;24.756;2024-01-07T06:06:13;86458.16;;;-144.30;100.00
7180;BME280;3631;42.152;24.756;2024-01-07T06:08:41;86299.06;;;-144.30;100.00
7180;BME280;3631;42.152;24.756;2024-01-07T06:11:08;86434.28;;;-144.30;100.00
7180;BME280;3631;42.152;24.756;2024-01-07T06:13:36;86436.28;;;-144.30;100.00
7180;BME280;3631;42.152;24.756;2024-01-07T06:16:03;86452.19;;;-144.30;100.00
7180;BME280;3631;42.152;24.756;2024-01-07T06:18:30;86436.28;;;-144.30;100.00
7180;BME280;3631;42.152;24.756;2024-01-07T06:20:57;86390.53;;;-144.30;100.00
7180;BME280;3631;42.152;24.756;2024-01-07T06:23:24;86460.16;;;-144.30;100.00
7180;BME280;3631;42.152;24.756;2024-01-07T06:25:52;86462.13;;;-144.30;100.00
7180;BME280;3631;42.152;24.756;2024-01-07T06:28:19;86464.13;;;-144.30;100.00
7180;BME280;3631;42.152;24.756;2024-01-07T06:30:46;86434.28;;;-144.30;100.00
7180;BME280;3631;42.152;24.756;2024-01-07T06:33:13;86398.50;;;-144.30;100.00
7180;BME280;3631;42.152;24.756;2024-01-07T06:35:40;86452.19;;;-144.30;100.00
7180;BME280;3631;42.152;24.756;2024-01-07T06:38:07;86412.41;;;-144.30;100.00
7180;BME280;3631;42.152;24.756;2024-01-07T06:40:34;86432.31;;;-144.30;100.00
7180;BME280;3631;42.152;24.756;2024-01-07T06:43:02;86446.22;;;-144.30;100.00
7180;BME280;3631;42.152;24.756;2024-01-07T06:45:29;86426.34;;;-144.30;100.00
7180;BME280;3631;42.152;24.756;2024-01-07T06:47:56;86402.47;;;-144.30;100.00
7180;BME280;3631;42.152;24.756;2024-01-07T06:50:23;86406.44;;;-144.30;100.00
7180;BME280;3631;42.152;24.756;2024-01-07T06:52:50;86458.16;;;-144.30;100.00
7180;BME280;3631;42.152;24.756;2024-01-07T06:55:16;86436.28;;;-144.30;100.00
7180;BME280;3631;42.152;24.756;2024-01-07T06:57:43;86410.44;;;-144.30;100.00
7180;BME280;3631;42.152;24.756;2024-01-07T07:00:13;86394.53;;;-144.30;100.00
7180;BME280;3631;42.152;24.756;2024-01-07T07:02:40;86376.63;;;-144.30;100.00
7180;BME280;3631;42.152;24.756;2024-01-07T07:05:07;86374.63;;;-144.30;100.00
7180;BME280;3631;42.152;24.756;2024-01-07T07:07:35;86398.50;;;-144.30;100.00
7180;BME280;3631;42.152;24.756;2024-01-07T07:10:02;86368.66;;;-144.30;100.00
7180;BME280;3631;42.152;24.756;2024-01-07T07:12:29;86388.56;;;-144.30;100.00
7180;BME280;3631;42.152;24.756;2024-01-07T07:14:56;86366.69;;;-144.30;100.00
7180;BME280;3631;42.152;24.756;2024-01-07T07:17:24;86416.41;;;-144.30;100.00
7180;BME280;3631;42.152;24.756;2024-01-07T07:19:51;86344.81;;;-144.30;100.00
7180;BME280;3631;42.152;24.756;2024-01-07T07:22:18;86374.63;;;-144.30;100.00
7180;BME280;3631;42.152;24.756;2024-01-07T07:24:45;86394.53;;;-144.30;100.00
7180;BME280;3631;42.152;24.756;2024-01-07T07:27:12;86370.66;;;-144.30;100.00
7180;BME280;3631;42.152;24.756;2024-01-07T07:29:38;86398.50;;;-144.30;100.00
7180;BME280;3631;42.152;24.756;2024-01-07T07:32:06;86382.59;;;-144.30;100.00
7180;BME280;3631;42.152;24.756;2024-01-07T07:34:35;86362.72;;;-144.30;100.00
7180;BME280;3631;42.152;24.756;2024-01-07T07:37:02;86424.34;;;-144.30;100.00
7180;BME280;3631;42.152;24.756;2024-01-07T07:39:29;86388.56;;;-144.30;100.00
7180;BME280;3631;42.152;24.756;2024-01-07T07:41:56;86307.03;;;-144.30;100.00
7180;BME280;3631;42.152;24.756;2024-01-07T07:44:23;86398.50;;;-144.30;100.00
7180;BME280;3631;42.152;24.756;2024-01-07T07:46:50;86432.31;;;-144.30;100.00
7180;BME280;3631;42.152;24.756;2024-01-07T07:49:16;86364.69;;;-144.30;100.00
7180;BME280;3631;42.152;24.756;2024-01-07T07:51:45;86368.66;;;-144.30;100.00
7180;BME280;3631;42.152;24.756;2024-01-07T07:54:12;86392.53;;;-144.30;100.00
7180;BME280;3631;42.152;24.756;2024-01-07T07:56:39;86360.72;;;-144.30;100.00
7180;BME280;3631;42.152;24.756;2024-01-07T07:59:05;86398.50;;;-144.30;100.00
7180;BME280;3631;42.152;24.756;2024-01-07T08:01:34;86293.09;;;-144.30;100.00
7180;BME280;3631;42.152;24.756;2024-01-07T08:04:01;86330.88;;;-144.30;100.00
7180;BME280;3631;42.152;24.756;2024-01-07T08:06:30;86370.66;;;-144.30;100.00
7180;BME280;3631;42.152;24.756;2024-01-07T08:08:58;86346.81;;;-144.30;100.00
7180;BME280;3631;42.152;24.756;2024-01-07T08:11:26;86362.72;;;-144.30;100.00
7180;BME280;3631;42.152;24.756;2024-01-07T08:13:55;86330.88;;;-144.30;100.00
7180;BME280;3631;42.152;24.756;2024-01-07T08:16:23;86309.03;;;-144.30;100.00
7180;BME280;3631;42.152;24.756;2024-01-07T08:18:49;86314.97;;;-144.30;100.00
7180;BME280;3631;42.152;24.756;2024-01-07T08:21:16;86320.94;;;-144.30;100.00
7180;BME280;3631;42.152;24.756;2024-01-07T08:23:43;86305.03;;;-144.30;100.00
7180;BME280;3631;42.152;24.756;2024-01-07T08:26:11;86281.19;;;-144.30;100.00
7180;BME280;3631;42.152;24.756;2024-01-07T08:28:38;86275.22;;;-144.30;100.00
7180;BME280;3631;42.152;24.756;2024-01-07T08:31:05;86267.25;;;-144.30;100.00
7180;BME280;3631;42.152;24.756;2024-01-07T08:33:32;86289.13;;;-144.30;100.00
7180;BME280;3631;42.152;24.756;2024-01-07T08:36:00;86283.16;;;-144.30;100.00
7180;BME280;3631;42.152;24.756;2024-01-07T08:38:27;86271.25;;;-144.30;100.00
7180;BME280;3631;42.152;24.756;2024-01-07T08:40:54;86229.47;;;-144.30;100.00
7180;BME280;3631;42.152;24.756;2024-01-07T08:43:22;86227.50;;;-144.30;100.00
7180;BME280;3631;42.152;24.756;2024-01-07T08:45:49;86251.34;;;-144.30;100.00
7180;BME280;3631;42.152;24.756;2024-01-07T08:48:16;86239.44;;;-144.30;100.00
7180;BME280;3631;42.152;24.756;2024-01-07T08:50:43;86267.25;;;-144.30;100.00
7180;BME280;3631;42.152;24.756;2024-01-07T08:53:11;86219.53;;;-144.30;100.00
7180;BME280;3631;42.152;24.756;2024-01-07T08:55:40;86193.69;;;-144.30;100.00
7180;BME280;3631;42.152;24.756;2024-01-07T08:58:07;86231.47;;;-144.30;100.00
7180;BME280;3631;42.152;24.756;2024-01-07T09:00:35;86207.59;;;-144.30;100.00
7180;BME280;3631;42.152;24.756;2024-01-07T09:03:02;86221.53;;;-144.30;100.00
7180;BME280;3631;42.152;24.756;2024-01-07T09:05:29;86191.69;;;-144.30;100.00
7180;BME280;3631;42.152;24.756;2024-01-07T09:07:56;86257.31;;;-144.30;100.00
7180;BME280;3631;42.152;24.756;2024-01-07T09:10:23;86173.81;;;-144.30;100.00
7180;BME280;3631;42.152;24.756;2024-01-07T09:12:50;86229.47;;;-144.30;100.00
7180;BME280;3631;42.152;24.756;2024-01-07T09:15:19;86237.44;;;-144.30;100.00
7180;BME280;3631;42.152;24.756;2024-01-07T09:17:48;86221.53;;;-144.30;100.00
7180;BME280;3631;42.152;24.756;2024-01-07T09:20:14;86225.50;;;-144.30;100.00
7180;BME280;3631;42.152;24.756;2024-01-07T09:22:41;86155.91;;;-144.30;100.00
7180;BME280;3631;42.152;24.756;2024-01-07T09:25:09;86185.72;;;-144.30;100.00
7180;BME280;3631;42.152;24.756;2024-01-07T09:27:37;86239.44;;;-144.30;100.00
7180;BME280;3631;42.152;24.756;2024-01-07T09:30:05;86191.69;;;-144.30;100.00
7180;BME280;3631;42.152;24.756;2024-01-07T09:32:32;86191.69;;;-144.30;100.00
7180;BME280;3631;42.152;24.756;2024-01-07T09:35:00;86177.78;;;-144.30;100.00
7180;BME280;3631;42.152;24.756;2024-01-07T09:37:28;86151.94;;;-144.30;100.00
7180;BME280;3631;42.152;24.756;2024-01-07T09:39:55;86203.63;;;-144.30;100.00
7180;BME280;3631;42.152;24.756;2024-01-07T09:42:21;86179.78;;;-144.30;100.00
7180;BME280;3631;42.152;24.756;2024-01-07T09:44:50;86155.91;;;-144.30;100.00
7180;BME280;3631;42.152;24.756;2024-01-07T09:47:17;86169.81;;;-144.30;100.00
7180;BME280;3631;42.152;24.756;2024-01-07T09:49:46;86159.88;;;-144.30;100.00
7180;BME280;3631;42.152;24.756;2024-01-07T09:52:14;86191.69;;;-144.30;100.00
7180;BME280;3631;42.152;24.756;2024-01-07T09:54:46;86177.78;;;-144.30;100.00
7180;BME280;3631;42.152;24.756;2024-01-07T09:57:16;86106.19;;;-144.30;100.00
7180;BME280;3631;42.152;24.756;2024-01-07T09:59:43;86112.16;;;-144.30;99.96
7180;BME280;3631;42.152;24.756;2024-01-07T10:02:09;86153.91;;;-144.30;99.24
7180;BME280;3631;42.152;24.756;2024-01-07T10:04:37;86153.91;;;-144.30;99.76
7180;BME280;3631;42.152;24.756;2024-01-07T10:07:04;86159.88;;;-144.30;99.76
7180;BME280;3631;42.152;24.756;2024-01-07T10:09:33;85945.16;;;-144.30;99.67
7180;BME280;3631;42.152;24.756;2024-01-07T10:12:00;86082.34;;;-144.30;99.67
7180;BME280;3631;42.152;24.756;2024-01-07T10:14:27;86116.16;;;-144.30;99.36
7180;BME280;3631;42.152;24.756;2024-01-07T10:16:55;86108.19;;;-144.30;99.41
7180;BME280;3631;42.152;24.756;2024-01-07T10:19:24;86044.56;;;-144.30;99.22
7180;BME280;3631;42.152;24.756;2024-01-07T10:22:00;86078.38;;;-144.30;98.73
7180;BME280;3631;42.152;24.756;2024-01-07T10:24:35;86002.81;;;-144.30;98.48
7180;BME280;3631;42.152;24.756;2024-01-07T10:27:04;86054.50;;;-144.30;98.38
7180;BME280;3631;42.152;24.756;2024-01-07T10:29:31;86175.78;;;-144.30;98.36
7180;BME280;3631;42.152;24.756;2024-01-07T10:31:59;86044.56;;;-144.30;97.68
7180;BME280;3631;42.152;24.756;2024-01-07T10:34:29;86022.69;;;-144.30;96.41
7180;BME280;3631;42.152;24.756;2024-01-07T10:36:59;85976.97;;;-144.30;95.05
7180;BME280;3631;42.152;24.756;2024-01-07T10:39:26;86022.69;;;-144.30;95.32
7180;BME280;3631;42.152;24.756;2024-01-07T10:41:55;86020.69;;;-144.30;95.37
7180;BME280;3631;42.152;24.756;2024-01-07T10:44:25;86038.59;;;-144.30;94.51
7180;BME280;3631;42.152;24.756;2024-01-07T10:46:54;85982.94;;;-144.30;94.65
7180;BME280;3631;42.152;24.756;2024-01-07T10:49:22;85959.06;;;-144.30;95.24
7180;BME280;3631;42.152;24.756;2024-01-07T10:52:02;85998.84;;;-144.30;95.23
7180;BME280;3631;42.152;24.756;2024-01-07T10:54:34;86002.81;;;-144.30;94.87
7180;BME280;3631;42.152;24.756;2024-01-07T10:57:08;86000.81;;;-144.30;94.83
7180;BME280;3631;42.152;24.756;2024-01-07T10:59:39;85953.09;;;-144.30;95.00
7180;BME280;3631;42.152;24.756;2024-01-07T11:02:07;85949.13;;;-144.30;94.77
7180;BME280;3631;42.152;24.756;2024-01-07T11:04:43;85939.19;;;-144.30;94.02
7180;BME280;3631;42.152;24.756;2024-01-07T11:07:19;85963.03;;;-144.30;92.90
7180;BME280;3631;42.152;24.756;2024-01-07T11:10:04;85911.34;;;-144.30;92.27
7180;BME280;3631;42.152;24.756;2024-01-07T11:12:34;85909.34;;;-144.30;90.78
7180;BME280;3631;42.152;24.756;2024-01-07T11:15:01;85961.06;;;-144.30;91.12
7180;BME280;3631;42.152;24.756;2024-01-07T11:17:42;85947.13;;;-144.30;90.08
7180;BME280;3631;42.152;24.756;2024-01-07T11:20:20;85939.19;;;-144.30;88.88
7180;BME280;3631;42.152;24.756;2024-01-07T11:22:47;85907.38;;;-144.30;86.35
7180;BME280;3631;42.152;24.756;2024-01-07T11:25:30;85863.63;;;-144.30;84.56
7180;BME280;3631;42.152;24.756;2024-01-07T11:28:01;85877.53;;;-144.30;83.27
7180;BME280;3631;42.152;24.756;2024-01-07T11:30:28;85865.63;;;-144.30;83.29
7180;BME280;3631;42.152;24.756;2024-01-07T11:32:58;85865.63;;;-144.30;84.37
7180;BME280;3631;42.152;24.756;2024-01-07T11:35:55;85877.53;;;-144.30;81.15
7180;BME280;3631;42.152;24.756;2024-01-07T11:38:23;85865.63;;;-144.30;80.94
7180;BME280;3631;42.152;24.756;2024-01-07T11:40:50;85893.44;;;-144.30;81.38
7180;BME280;3631;42.152;24.756;2024-01-07T11:43:19;85829.84;;;-144.30;81.02
7180;BME280;3631;42.152;24.756;2024-01-07T11:45:46;85845.75;;;-144.30;80.15
7180;BME280;3631;42.152;24.756;2024-01-07T11:48:16;85827.84;;;-144.30;79.85
7180;BME280;3631;42.152;24.756;2024-01-07T11:50:42;85829.84;;;-144.30;79.85
7180;BME280;3631;42.152;24.756;2024-01-07T11:53:11;85800.00;;;-144.30;80.75
7180;BME280;3631;42.152;24.756;2024-01-07T11:55:38;85794.03;;;-144.30;81.04
7180;BME280;3631;42.152;24.756;2024-01-07T11:58:05;85798.03;;;-144.30;82.03
7180;BME280;3631;42.152;24.756;2024-01-07T12:00:34;85821.88;;;-144.30;80.22
7180;BME280;3631;42.152;24.756;2024-01-07T12:03:01;85758.25;;;-144.30;79.78
7180;BME280;3631;42.152;24.756;2024-01-07T12:05:28;85794.03;;;-144.30;79.68
7180;BME280;3631;42.152;24.756;2024-01-07T12:07:56;85802.00;;;-144.30;80.18
7180;BME280;3631;42.152;24.756;2024-01-07T12:10:23;85784.09;;;-144.30;80.44
7180;BME280;3631;42.152;24.756;2024-01-07T12:12:50;85452.09;;;-144.30;80.68
7180;BME280;3631;42.152;24.756;2024-01-07T12:15:18;85790.06;;;-144.30;81.18
7180;BME280;3631;42.152;24.756;2024-01-07T12:17:55;85821.88;;;-144.30;81.62
7180;BME280;3631;42.152;24.756;2024-01-07T12:20:22;85796.03;;;-144.30;81.42
7180;BME280;3631;42.152;24.756;2024-01-07T12:22:49;85821.88;;;-144.30;81.73
7180;BME280;3631;42.152;24.756;2024-01-07T12:25:21;85798.03;;;-144.30;81.84
7180;BME280;3631;42.152;24.756;2024-01-07T12:27:48;85770.19;;;-144.30;82.19
7180;BME280;3631;42.152;24.756;2024-01-07T12:30:19;85853.69;;;-144.30;82.91
7180;BME280;3631;42.152;24.756;2024-01-07T12:32:45;85805.97;;;-144.30;83.23
7180;BME280;3631;42.152;24.756;2024-01-07T12:35:14;85837.78;;;-144.30;83.19
7180;BME280;3631;42.152;24.756;2024-01-07T12:37:43;85821.88;;;-144.30;83.63
7180;BME280;3631;42.152;24.756;2024-01-07T12:40:12;85829.84;;;-144.30;84.31
7180;BME280;3631;42.152;24.756;2024-01-07T12:42:39;85849.72;;;-144.30;84.65
7180;BME280;3631;42.152;24.756;2024-01-07T12:45:11;85788.09;;;-144.30;84.80